Terminal Aerodrome Forecast
Issued by NWS

Home | Current Version | Previous Version | Text Only | Print | Product List | Glossary Off
Versions: 1 2 3 4 5 6 7 8 9 10 11 12 13 14 15 16 17

000
FTUS43 KMPX 071201 CCA
TAFRWF
TAF COR
KRWF 071201Z 0712/0812 27018G25KT P6SM BKN030
     FM071700 29020G28KT P6SM BKN035 OVC050
     FM080300 29018G25KT P6SM BKN030=

USA.gov is the U.S. government's official web portal to all federal, state and local government web resources and services.